Главная страница
METAR-TAF:

METAR-TAF

Аэропорты :

Пудун

Шанхай-Пудун, Китай

широта: 31-07N, долгота: 121-46E, высота над уровнем моря: 4 м

Текущие метеонаблюдения

Эта сводка был подготовлена 42 минут назад, в 00:00 UTC
Ветер 6 Узел от западный
Температура 5°C
Влажность 75%
Давление 1026 hPa
Видимость: 4000 м
дымка

METAR: ZSPD 170000Z 26003MPS 4000 BR NSC 05/01 Q1026 NOSIG

Время: 08:42 (00:42 UTC)

Прогноз

Эта сводка был подготовлена 3 часа и 31 минут назад, в 21:11 UTC
Прогноз действительный с 17-го 00 UTC до 17-го 24 UTC
Ветер 8 Узел от западно-северо-западный
Видимость: 5000 м
Рассеянная облачность на высоте 2000 фута
дымка

TAF: ZSPD 162111Z 1700/1724 29004MPS 5000 BR BKN020 TX11/1706Z TN02/1721Z

Метеонаблюдения и прогнозы для более 4000 аэропортов (сводки METAR и TAF).

Имеющиеся станции представлены на карте желтыми и красными точками.

Чтобы увидеть название станции, наведите на нее мышь.

Затем щелкните, чтобы увидеть метеонаблюдения и метеопрогнозы.

Управление картой: чтобы увеличить масштаб, щелкните зеленые кнопки с черным крестиком; чтобы уменьшить масштаб, щелкните зеленую кнопку с тире; для просмотра соседних карт щелкайте зеленые стрелки.


METAR-TAF: